Hlavní strana
METAR-TAF:

METAR-TAF

Letiště :

Letiště Okajama

Okajama, Japonsko

zeměpisná šířka: 34-45N, zeměpisná délka: 133-51E, výška: 241 m

Aktuální stav počasí

Zpráva byla vytvořena před 1 hodinou a 18 minutami, v 11:00 UTC
Západojihozápadní vítr 11 kt
Teplota 6°C
Vlhkost vzduchu 81%
Tlak 1006 hPa
Viditelnost 10 km a více
Skoro jasno ve výšce 2500 ft

METAR: RJOB 281100Z 24011KT 9999 FEW025 06/03 Q1006

Čas: 21:18 (12:18 UTC)

Předpověď počasí

Zpráva byla vytvořena před 1 hodinou a 11 minutami, v 11:07 UTC
Předpověď platná od 28 v 12 UTC do 29 v 18 UTC
Západní vítr 16 kt
Viditelnost 10 km a více
Skoro jasno ve výšce 1500 ft
Oblačno až skoro zataženo ve výšce 3500 ft
Dočasný
od 28 v 12 UTC do 28 v 16 UTC
Západní vítr 18 kt s nárazy do 28 kt
Dočasný
od 29 v 00 UTC do 29 v 09 UTC
Západní vítr 18 kt s nárazy do 28 kt

TAF: RJOB 281107Z 2812/2918 26016KT 9999 FEW015 BKN035 TEMPO 2812/2816 26018G28KT TEMPO 2900/2909 26018G28KT

Stav a předpovědi počasí z více než 4 000 letišť (zprávy METAR a TAF).

Červené a žluté tečky na mapě představují dostupné meteorologické stanice.

Když kurzor umístíte na tečku, zobrazí se název stanice.

Pak kliknutím zobrazíte stav a předpověď počasí.

Chcete-li změnit mapu, kliknutím na zelené tlačítko se znaménkem +mapu přiblížíte, kliknutím na zelené tlačítko se znaménkem – mapu oddálíte a kliknutím na zelené šipky přejdete na sousední mapy.


METAR-TAF: